LFLB/CMF METAR and TAF weather

Enter ICAO airport designator
Station Type Date Time Source
LFLB METAR 2021/09/23 17:30 UTC NOAA

LFLB 231730Z AUTO 00000KT 9999 FEW068 18/15 Q1020 NOSIG


Station Type Date Time Source
LFLB Decoded METAR 2021/09/23 17:30 UTC NOAA

Chambery / Aix-Les-Bains, France (LFLB) 45-39N 005-53E 239M
Sep 23, 2021 - 01:30 PM EDT / 2021.09.23 1730 UTC
Wind: Calm:0
Visibility: greater than 7 mile(s):0
Sky conditions: mostly clear
Temperature: 64 F (18 C)
Dew Point: 59 F (15 C)
Relative Humidity: 82%
Pressure (altimeter): 30.12 in. Hg (1020 hPa)
ob: LFLB 231730Z AUTO 00000KT 9999 FEW068 18/15 Q1020 NOSIG
cycle: 17

Station Type Date Time Source
LFLB TAF 2021/09/23 15:26 UTC NOAA

TAF LFLB 231400Z 2315/2415 36004KT CAVOK
TEMPO 2403/2408 1500 MIFG

Example: see airport list